Time;durP1;ratioP1;P1;durP2;ratioP2;P2;SDS_P1;SDS_P2;PMS_P1;PMS_P2;Temp;Humidity;BMP_temperature;BMP_pressure;BME280_temperature;BME280_humidity;BME280_pressure;Samples;Min_cycle;Max_cycle;Signal;HPM_P1;HPM_P2
2021/01/03 00:00:23;;;;;;;93.05;31.88;;;;;;;7.10;63.44;101475.47;4919927;28;122769;-70
2021/01/03 00:02:50;;;;;;;92.95;32.30;;;;;;;7.08;63.61;101466.72;4927182;28;113655;-70
2021/01/03 00:05:20;;;;;;;95.68;33.58;;;;;;;7.07;63.77;101465.00;4945619;28;113488;-70
2021/01/03 00:07:46;;;;;;;93.40;32.58;;;;;;;7.06;63.70;101457.97;4938951;28;123803;-70
2021/01/03 00:10:13;;;;;;;95.90;30.65;;;;;;;7.05;63.56;101458.91;4920786;28;122044;-70
2021/01/03 00:12:41;;;;;;;100.03;33.42;;;;;;;7.07;63.71;101459.72;4924135;28;114523;-70
2021/01/03 00:15:12;;;;;;;97.85;33.28;;;;;;;7.08;63.73;101465.84;4938271;28;115076;-71
2021/01/03 00:17:39;;;;;;;118.05;35.55;;;;;;;7.08;63.63;101466.72;4917923;28;124963;-70
2021/01/03 00:20:10;;;;;;;102.75;33.30;;;;;;;7.07;63.79;101465.00;4938796;28;124352;-71
2021/01/03 00:22:37;;;;;;;111.72;33.58;;;;;;;7.06;63.83;101476.41;4938128;28;112533;-71
2021/01/03 00:25:06;;;;;;;112.32;34.95;;;;;;;7.06;63.87;101473.78;4931042;28;114079;-70
2021/01/03 00:27:33;;;;;;;110.00;34.35;;;;;;;7.06;63.70;101463.25;4903603;28;123356;-70
2021/01/03 00:30:00;;;;;;;102.22;34.67;;;;;;;7.07;64.01;101465.00;4935488;28;124854;-70
2021/01/03 00:32:26;;;;;;;130.27;35.53;;;;;;;7.08;63.75;101469.34;4921238;28;114393;-70
2021/01/03 00:34:53;;;;;;;126.70;36.35;;;;;;;7.07;64.04;101480.81;4932190;28;113962;-70
2021/01/03 00:37:21;;;;;;;125.07;35.25;;;;;;;7.07;63.80;101465.00;4933640;28;124371;-70
2021/01/03 00:39:49;;;;;;;103.68;34.50;;;;;;;7.07;63.84;101459.72;4932369;28;124256;-70
2021/01/03 00:42:17;;;;;;;121.10;35.53;;;;;;;7.09;63.98;101459.72;4917877;28;114233;-70
2021/01/03 00:44:45;;;;;;;108.47;33.67;;;;;;;7.11;63.89;101450.88;4912821;28;114165;-70
2021/01/03 00:47:11;;;;;;;115.93;35.35;;;;;;;7.15;63.85;101456.94;4931918;28;124042;-70
2021/01/03 00:49:38;;;;;;;108.20;35.45;;;;;;;7.15;63.90;101457.78;4918443;28;122528;-70
2021/01/03 00:52:04;;;;;;;119.82;35.95;;;;;;;7.15;63.72;101457.78;4934080;28;114665;-70
2021/01/03 00:54:31;;;;;;;100.70;34.83;;;;;;;7.15;63.89;101460.44;4929991;28;114722;-70
2021/01/03 00:56:57;;;;;;;106.80;34.90;;;;;;;7.15;63.95;101457.78;4916704;28;122041;-70
2021/01/03 00:59:24;;;;;;;113.03;35.33;;;;;;;7.14;63.71;101449.91;4933507;28;124406;-70
2021/01/03 01:01:51;;;;;;;99.85;33.60;;;;;;;7.13;64.03;101442.94;4918228;28;114362;-71
2021/01/03 01:04:18;;;;;;;115.53;36.20;;;;;;;7.09;64.02;101452.66;4931863;28;114706;-70
2021/01/03 01:06:45;;;;;;;107.38;33.58;;;;;;;7.09;63.82;101451.81;4915599;28;124084;-71
2021/01/03 01:09:12;;;;;;;98.43;33.25;;;;;;;7.08;64.08;101450.06;4931011;28;124444;-70
2021/01/03 01:11:41;;;;;;;97.88;32.10;;;;;;;7.07;64.12;101453.59;4928510;28;114149;-71
2021/01/03 01:14:10;;;;;;;100.10;34.40;;;;;;;7.07;63.80;101457.09;4916162;28;114258;-70
2021/01/03 01:16:37;;;;;;;99.82;33.05;;;;;;;7.06;63.89;101457.97;4929976;28;124206;-70
2021/01/03 01:19:04;;;;;;;88.90;31.33;;;;;;;7.05;64.07;101440.47;4914208;28;124020;-71
2021/01/03 01:21:31;;;;;;;86.63;30.83;;;;;;;7.07;64.25;101449.19;4933962;28;114532;-70
2021/01/03 01:23:58;;;;;;;83.40;30.95;;;;;;;7.09;63.94;101446.53;4915044;28;115761;-71
2021/01/03 01:26:24;;;;;;;87.63;31.85;;;;;;;7.10;64.15;101449.16;4925406;28;122726;-70
2021/01/03 01:28:51;;;;;;;84.00;30.38;;;;;;;7.11;64.00;101450.88;4929975;28;123965;-70
2021/01/03 01:31:18;;;;;;;82.95;30.20;;;;;;;7.10;63.99;101454.41;4930773;28;116983;-70
2021/01/03 01:33:44;;;;;;;74.60;27.55;;;;;;;7.10;63.68;101454.41;4910923;28;115016;-70
2021/01/03 01:36:11;;;;;;;63.95;24.50;;;;;;;7.09;63.60;101465.84;4914681;28;123788;-70
2021/01/03 01:38:38;;;;;;;57.83;23.90;;;;;;;7.08;63.68;101456.19;4931257;28;127157;-70
2021/01/03 01:41:05;;;;;;;61.08;23.45;;;;;;;7.08;63.94;101456.19;4932855;28;114138;-70
2021/01/03 01:43:32;;;;;;;65.95;24.92;;;;;;;7.11;63.90;101456.13;4909942;28;113760;-70
2021/01/03 01:45:59;;;;;;;64.25;25.83;;;;;;;7.12;64.03;101452.63;4910304;28;123359;-70
2021/01/03 01:48:33;;;;;;;70.55;25.05;;;;;;;7.15;63.88;101452.53;4933076;28;124166;-70
2021/01/03 01:51:05;;;;;;;83.85;30.42;;;;;;;7.19;63.87;101450.69;4931522;28;114595;-70
2021/01/03 01:53:46;;;;;;;90.30;29.95;;;;;;;7.20;63.41;101455.94;4930213;28;113828;-70
2021/01/03 01:56:30;;;;;;;96.13;31.02;;;;;;;7.19;63.52;101454.19;4925737;28;124119;-70
2021/01/03 01:59:00;;;;;;;86.30;30.00;;;;;;;7.18;63.86;101452.47;4919762;28;123319;-70
2021/01/03 02:01:40;;;;;;;91.43;30.48;;;;;;;7.17;63.83;101456.00;4932102;28;114509;-70
2021/01/03 02:04:24;;;;;;;93.38;30.90;;;;;;;7.16;63.46;101456.91;4912849;28;113478;-70
2021/01/03 02:07:06;;;;;;;88.25;31.08;;;;;;;7.17;63.30;101450.72;4912583;28;124623;-70
2021/01/03 02:10:19;;;;;;;90.97;31.73;;;;;;;7.16;63.75;101448.16;4930313;28;123890;-70
2021/01/03 02:12:52;;;;;;;93.90;31.90;;;;;;;7.18;63.33;101452.47;4889119;28;116488;-70
2021/01/03 02:15:25;;;;;;;83.05;31.55;;;;;;;7.18;63.78;101449.84;4930550;28;115531;-71
2021/01/03 02:17:52;;;;;;;91.18;32.53;;;;;;;7.19;63.73;101450.69;4931034;28;124002;-70
2021/01/03 02:20:18;;;;;;;93.32;32.38;;;;;;;7.20;63.57;101444.53;4929253;28;125324;-70
2021/01/03 02:22:51;;;;;;;89.65;32.60;;;;;;;7.21;63.63;101447.16;4913189;28;115414;-70
2021/01/03 02:25:19;;;;;;;84.75;30.70;;;;;;;7.24;63.64;101445.34;4928671;28;114917;-70
2021/01/03 02:28:21;;;;;;;96.15;31.20;;;;;;;7.24;63.64;101447.97;4934398;28;124499;-70
2021/01/03 02:30:50;;;;;;;83.40;29.77;;;;;;;7.25;63.63;101436.53;4909500;28;124297;-71
2021/01/03 02:33:25;;;;;;;87.47;29.85;;;;;;;7.25;63.79;101447.06;4928657;28;114345;-70
2021/01/03 02:36:02;;;;;;;92.03;31.20;;;;;;;7.25;63.29;101441.78;4911084;28;113866;-71
2021/01/03 02:38:30;;;;;;;94.10;31.17;;;;;;;7.25;63.58;101441.78;4913078;28;123506;-70
2021/01/03 02:40:57;;;;;;;93.65;30.80;;;;;;;7.24;63.24;101447.97;4912865;28;124324;-70
2021/01/03 02:43:23;;;;;;;96.05;31.10;;;;;;;7.22;63.55;101454.13;4913114;28;113618;-70
2021/01/03 02:45:50;;;;;;;90.82;31.13;;;;;;;7.21;63.48;101457.69;4911113;28;113776;-70
2021/01/03 02:48:20;;;;;;;98.53;32.70;;;;;;;7.21;63.47;101452.41;4927704;28;123245;-70
2021/01/03 02:50:47;;;;;;;102.00;32.42;;;;;;;7.21;63.38;101447.16;4913681;28;122865;-70
2021/01/03 02:53:14;;;;;;;89.97;32.45;;;;;;;7.20;63.32;101455.94;4912878;28;113453;-70
2021/01/03 02:55:41;;;;;;;94.03;31.98;;;;;;;7.19;63.61;101448.06;4934107;28;114808;-70
2021/01/03 02:58:07;;;;;;;95.97;31.88;;;;;;;7.19;63.36;101438.38;4931512;28;124725;-70
2021/01/03 03:00:36;;;;;;;91.57;30.95;;;;;;;7.19;63.67;101443.66;4932500;28;124249;-70
2021/01/03 03:03:06;;;;;;;93.95;31.65;;;;;;;7.20;63.62;101444.53;4931982;28;114832;-70
2021/01/03 03:05:33;;;;;;;89.78;30.90;;;;;;;7.21;63.35;101446.25;4935718;28;114129;-70
2021/01/03 03:08:00;;;;;;;103.00;33.42;;;;;;;7.21;63.72;101441.88;4917288;28;127130;-70
2021/01/03 03:10:26;;;;;;;84.82;31.38;;;;;;;7.22;63.33;101442.75;4919423;28;122781;-70
2021/01/03 03:12:55;;;;;;;106.20;33.25;;;;;;;7.22;63.46;101438.31;4934746;28;115267;-70
2021/01/03 03:15:24;;;;;;;96.63;33.08;;;;;;;7.24;63.81;101442.72;4931996;28;114957;-70
2021/01/03 03:17:51;;;;;;;100.65;33.63;;;;;;;7.26;63.44;101438.28;4916726;28;124026;-70
2021/01/03 03:20:20;;;;;;;101.30;34.72;;;;;;;7.26;63.33;101443.53;4933265;28;124614;-70
2021/01/03 03:22:47;;;;;;;104.20;33.85;;;;;;;7.27;63.60;101437.34;4916254;28;114868;-70
2021/01/03 03:25:14;;;;;;;102.93;34.67;;;;;;;7.27;63.55;101440.88;4933657;28;113820;-70
2021/01/03 03:27:40;;;;;;;102.68;35.55;;;;;;;7.27;63.28;101440.88;4933932;28;123332;-70
2021/01/03 03:30:10;;;;;;;109.60;35.75;;;;;;;7.27;63.43;101437.34;4912015;28;122540;-70
2021/01/03 03:32:37;;;;;;;111.97;36.88;;;;;;;7.27;63.38;101434.72;4930727;28;114437;-70
2021/01/03 03:35:05;;;;;;;116.78;36.22;;;;;;;7.26;63.76;101433.00;4965280;22;114089;-68
2021/01/03 03:37:31;;;;;;;106.30;37.00;;;;;;;7.26;63.35;101433.00;4952504;28;124285;-68
2021/01/03 03:39:58;;;;;;;112.05;37.17;;;;;;;7.25;63.38;101436.53;4950774;28;124564;-68
2021/01/03 03:42:24;;;;;;;122.70;38.97;;;;;;;7.26;63.30;101443.53;4952231;28;114299;-68
2021/01/03 03:44:51;;;;;;;113.63;38.88;;;;;;;7.24;63.38;101434.81;4952672;28;113878;-68
2021/01/03 03:47:17;;;;;;;114.57;36.83;;;;;;;7.21;63.60;101436.63;4953210;28;123830;-68
2021/01/03 03:49:44;;;;;;;123.22;39.33;;;;;;;7.22;63.63;101438.31;4953175;28;123763;-68
2021/01/03 03:52:11;;;;;;;116.50;38.10;;;;;;;7.22;63.31;101438.31;4935593;28;113545;-68
2021/01/03 03:54:37;;;;;;;106.55;35.38;;;;;;;7.22;63.38;101433.06;4935071;28;112833;-68
2021/01/03 03:57:05;;;;;;;116.43;36.97;;;;;;;7.25;63.71;101436.53;4953620;28;124596;-68
2021/01/03 03:59:32;;;;;;;109.57;37.42;;;;;;;7.25;63.51;101436.53;4952821;28;123807;-68
2021/01/03 04:01:59;;;;;;;108.80;35.72;;;;;;;7.26;63.74;101443.53;4953153;28;115398;-68
2021/01/03 04:04:26;;;;;;;116.03;36.28;;;;;;;7.27;63.37;101434.72;4951917;28;115029;-68
2021/01/03 04:06:53;;;;;;;108.30;35.38;;;;;;;7.28;63.68;101436.47;4952900;28;123881;-68
2021/01/03 04:09:20;;;;;;;119.70;36.30;;;;;;;7.30;63.44;101439.94;4952641;28;123702;-68
2021/01/03 04:11:50;;;;;;;113.88;35.78;;;;;;;7.30;63.40;101439.94;4935610;28;114309;-68
2021/01/03 04:14:19;;;;;;;113.47;36.55;;;;;;;7.31;63.46;101433.75;4939598;28;114192;-68
2021/01/03 04:16:55;;;;;;;105.00;36.38;;;;;;;7.30;63.21;101432.88;4952233;28;124010;-68
2021/01/03 04:19:23;;;;;;;107.75;35.63;;;;;;;7.31;63.25;101436.38;4952727;28;124188;-68
2021/01/03 04:21:52;;;;;;;117.10;39.13;;;;;;;7.29;63.52;101438.19;4952783;28;114285;-68
2021/01/03 04:24:18;;;;;;;115.80;37.67;;;;;;;7.29;63.32;101443.47;4931964;28;113488;-68
2021/01/03 04:26:59;;;;;;;118.18;36.85;;;;;;;7.26;63.42;101439.13;4948316;28;125042;-68
2021/01/03 04:29:26;;;;;;;115.30;37.75;;;;;;;7.27;63.33;101440.00;4950272;28;123813;-68
2021/01/03 04:32:10;;;;;;;108.72;37.20;;;;;;;7.25;63.30;101433.88;4932396;28;113021;-68
2021/01/03 04:34:38;;;;;;;124.50;39.33;;;;;;;7.24;63.27;101434.81;4932331;28;113034;-68
2021/01/03 04:37:06;;;;;;;114.35;37.55;;;;;;;7.21;63.39;101439.25;4951799;28;124072;-68
2021/01/03 04:39:32;;;;;;;122.43;38.53;;;;;;;7.21;63.17;101436.63;4952300;28;123817;-68
2021/01/03 04:42:11;;;;;;;122.45;38.83;;;;;;;7.20;63.65;101434.88;4930414;28;114066;-68
2021/01/03 04:44:42;;;;;;;123.20;38.80;;;;;;;7.20;63.47;101434.88;4948749;28;113808;-68
2021/01/03 04:47:27;;;;;;;112.70;37.55;;;;;;;7.17;63.45;101434.91;4947741;28;124761;-68
2021/01/03 04:50:10;;;;;;;112.88;38.47;;;;;;;7.17;63.59;101432.28;4950501;28;123930;-68
2021/01/03 04:53:14;;;;;;;112.22;37.90;;;;;;;7.15;63.65;101439.34;4951230;28;115309;-68
2021/01/03 04:55:46;;;;;;;111.68;38.00;;;;;;;7.12;63.54;101436.81;4952666;28;114838;-68
2021/01/03 04:58:13;;;;;;;111.63;37.40;;;;;;;7.12;63.42;101436.81;4933730;28;124039;-68
2021/01/03 05:00:45;;;;;;;105.57;36.65;;;;;;;7.12;63.47;101435.91;4934115;28;121985;-68
2021/01/03 05:03:49;;;;;;;109.53;36.67;;;;;;;7.12;63.73;101436.81;4948813;28;115130;-69
2021/01/03 05:06:24;;;;;;;116.22;37.42;;;;;;;7.13;63.83;101442.94;4951006;28;114659;-68
2021/01/03 05:08:56;;;;;;;108.40;37.10;;;;;;;7.13;63.64;101437.66;4951639;28;124006;-68
2021/01/03 05:11:33;;;;;;;105.50;36.10;;;;;;;7.13;63.57;101441.16;4934489;28;123341;-68
2021/01/03 05:14:09;;;;;;;111.03;36.60;;;;;;;7.15;63.73;101447.25;4949156;28;114613;-68
2021/01/03 05:16:35;;;;;;;106.13;36.28;;;;;;;7.17;63.59;101442.81;4935688;28;113376;-68
2021/01/03 05:19:02;;;;;;;105.22;36.85;;;;;;;7.18;63.61;101439.31;4932343;28;123369;-68
2021/01/03 05:21:45;;;;;;;95.88;34.92;;;;;;;7.18;63.73;101447.19;4951056;28;124101;-68
2021/01/03 05:24:12;;;;;;;98.88;35.65;;;;;;;7.20;63.43;101440.13;4948025;28;114078;-68
2021/01/03 05:26:39;;;;;;;97.05;34.00;;;;;;;7.21;63.83;101447.16;4912501;28;113179;-68
2021/01/03 05:29:08;;;;;;;107.10;36.60;;;;;;;7.22;63.44;101443.59;4949844;28;124274;-68
2021/01/03 05:31:34;;;;;;;101.97;35.97;;;;;;;7.22;63.68;101438.31;4930480;28;123035;-68
2021/01/03 05:34:09;;;;;;;99.40;34.50;;;;;;;7.22;63.69;101448.88;4931740;28;114127;-68
2021/01/03 05:36:46;;;;;;;100.53;38.00;;;;;;;7.22;63.72;101440.09;4932359;28;113390;-68
2021/01/03 05:39:21;;;;;;;97.22;34.42;;;;;;;7.21;63.62;101441.88;4933707;28;123169;-68
2021/01/03 05:41:56;;;;;;;;;;;;;;;7.20;63.52;101445.41;4947538;28;124615;-68
2021/01/03 05:44:30;;;;;;;85.15;32.58;;;;;;;7.22;63.66;101442.75;4930409;28;114093;-68
2021/01/03 05:47:17;;;;;;;86.55;33.22;;;;;;;7.21;63.07;101449.78;4929477;28;114635;-68
2021/01/03 05:49:46;;;;;;;86.97;34.05;;;;;;;7.21;63.33;101441.88;4930566;28;124354;-68
2021/01/03 05:52:21;;;;;;;88.22;35.05;;;;;;;7.21;63.53;101447.16;4950326;28;123773;-68
2021/01/03 05:54:48;;;;;;;;;;;;;;;7.21;63.22;101451.53;4950800;28;114634;-68
2021/01/03 05:57:25;;;;;;;86.15;32.08;;;;;;;7.22;63.17;101454.13;4933356;28;111883;-68
2021/01/03 05:59:52;;;;;;;87.90;34.13;;;;;;;7.21;63.70;101457.69;4947690;28;124424;-68
2021/01/03 06:02:23;;;;;;;84.53;34.05;;;;;;;7.21;63.61;101457.69;4951391;28;124307;-68
2021/01/03 06:05:23;;;;;;;83.88;33.03;;;;;;;7.21;63.55;101456.78;4949742;28;114356;-68
2021/01/03 06:08:10;;;;;;;90.13;32.88;;;;;;;7.21;63.47;101457.69;4932011;28;113212;-68
2021/01/03 06:10:39;;;;;;;90.60;33.92;;;;;;;7.22;63.36;101458.53;4950018;28;124620;-68
2021/01/03 06:13:08;;;;;;;83.18;33.92;;;;;;;7.22;63.68;101456.78;4933079;28;124119;-68
2021/01/03 06:15:43;;;;;;;82.45;33.58;;;;;;;7.21;63.73;101462.97;4951333;28;115002;-68
2021/01/03 06:18:27;;;;;;;81.07;32.80;;;;;;;7.22;63.45;101475.22;4949580;28;113956;-68
2021/01/03 06:20:53;;;;;;;93.15;34.10;;;;;;;7.22;63.70;101472.56;4948297;28;124264;-68
2021/01/03 06:23:29;;;;;;;88.50;33.33;;;;;;;7.24;63.77;101471.69;4949694;28;124044;-68
2021/01/03 06:26:01;;;;;;;80.95;32.40;;;;;;;7.25;63.68;101478.69;4932854;28;113489;-68
2021/01/03 06:28:40;;;;;;;87.65;33.45;;;;;;;7.27;63.65;101476.88;4946987;28;114268;-68
2021/01/03 06:31:29;;;;;;;82.03;33.60;;;;;;;7.27;63.49;101476.88;4933387;28;124334;-68
2021/01/03 06:34:06;;;;;;;79.65;33.08;;;;;;;7.25;63.65;101469.00;4917483;28;123844;-68
2021/01/03 06:36:56;;;;;;;89.65;34.83;;;;;;;7.25;63.54;101478.69;4945941;28;114602;-68
2021/01/03 06:39:31;;;;;;;89.22;33.63;;;;;;;7.24;63.69;101477.81;4935464;28;114750;-68
2021/01/03 06:42:00;;;;;;;;;;;;;;;7.22;63.46;101477.84;4936991;28;123071;-68
2021/01/03 06:45:05;;;;;;;78.05;32.92;;;;;;;7.24;63.24;101487.50;4947694;28;124760;-68
2021/01/03 06:47:57;;;;;;;84.28;32.88;;;;;;;7.21;63.30;101491.94;4915798;28;114420;-68
2021/01/03 06:50:48;;;;;;;84.72;34.42;;;;;;;7.21;63.45;101484.03;4950223;28;111186;-68
2021/01/03 06:53:27;;;;;;;84.93;33.92;;;;;;;7.20;63.74;101487.56;4953084;28;124021;-68
2021/01/03 06:56:05;;;;;;;84.32;34.50;;;;;;;7.18;63.43;101494.63;4950876;28;123973;-68
2021/01/03 06:58:46;;;;;;;84.18;33.47;;;;;;;7.18;63.76;101489.34;4951479;28;115061;-68
2021/01/03 07:01:20;;;;;;;89.32;34.75;;;;;;;7.17;63.86;101477.06;4936452;28;113070;-68
2021/01/03 07:03:51;;;;;;;89.07;35.80;;;;;;;7.18;63.42;101489.34;4949560;28;123838;-68
2021/01/03 07:06:18;;;;;;;91.03;36.80;;;;;;;7.17;63.87;101487.59;4950890;28;125550;-68
2021/01/03 07:08:49;;;;;;;84.07;34.35;;;;;;;7.15;63.47;101481.50;4954127;28;117218;-68
2021/01/03 07:11:39;;;;;;;84.47;33.85;;;;;;;7.14;63.64;101487.69;4952351;28;113217;-68
2021/01/03 07:14:31;;;;;;;87.90;34.13;;;;;;;7.16;63.53;101491.16;4949388;28;123997;-69
2021/01/03 07:17:15;;;;;;;81.57;34.20;;;;;;;7.15;63.88;101489.41;4941114;28;124005;-68
2021/01/03 07:19:52;;;;;;;78.25;34.40;;;;;;;7.17;63.92;101492.88;4949600;28;114375;-68
2021/01/03 07:22:55;;;;;;;82.50;34.15;;;;;;;7.16;63.51;101488.53;4952328;28;114230;-68
2021/01/03 07:25:27;;;;;;;80.28;33.25;;;;;;;7.17;63.75;101490.25;4943966;28;124311;-68
2021/01/03 07:28:07;;;;;;;81.47;34.17;;;;;;;7.16;63.64;101491.16;4951300;28;123957;-68
2021/01/03 07:30:49;;;;;;;81.22;34.30;;;;;;;7.18;63.77;101494.63;4938033;28;115286;-68
2021/01/03 07:33:27;;;;;;;78.53;32.13;;;;;;;7.18;63.40;101497.25;4931723;28;114330;-68
2021/01/03 07:35:53;;;;;;;77.95;33.28;;;;;;;7.20;63.83;101498.09;4950860;28;124158;-68
2021/01/03 07:38:29;;;;;;;80.22;32.95;;;;;;;7.20;63.62;101498.09;4942061;28;124646;-68
2021/01/03 07:41:04;;;;;;;73.75;33.80;;;;;;;7.22;63.38;101500.69;4939922;28;114205;-68
2021/01/03 07:44:00;;;;;;;71.07;31.67;;;;;;;7.21;63.31;101499.84;4947265;28;114383;-68
2021/01/03 07:46:45;;;;;;;71.90;31.38;;;;;;;7.20;63.11;101503.34;4930606;28;124290;-68
2021/01/03 07:49:36;;;;;;;66.53;30.73;;;;;;;7.19;63.38;101496.34;4937648;28;124527;-68
2021/01/03 07:52:18;;;;;;;72.70;30.88;;;;;;;7.19;63.32;101501.59;4945464;28;114074;-68
2021/01/03 07:54:49;;;;;;;68.43;30.98;;;;;;;7.19;63.32;101506.88;4951850;28;114441;-67
2021/01/03 07:57:17;;;;;;;72.88;30.83;;;;;;;7.20;63.10;101502.50;4950128;28;123850;-67
2021/01/03 07:59:48;;;;;;;72.05;33.65;;;;;;;7.20;63.11;101507.75;4934118;28;124397;-68
2021/01/03 08:02:23;;;;;;;68.20;32.03;;;;;;;7.19;63.18;101511.28;4952473;28;114625;-69
2021/01/03 08:04:53;;;;;;;70.13;32.10;;;;;;;7.19;63.14;101517.41;4950864;28;114773;-68
2021/01/03 08:07:20;;;;;;;63.58;30.80;;;;;;;7.19;63.48;101512.16;4951154;28;124559;-68
2021/01/03 08:09:47;;;;;;;63.72;30.23;;;;;;;7.19;63.07;101517.41;4950796;28;123545;-68
2021/01/03 08:12:37;;;;;;;64.15;30.70;;;;;;;7.18;63.32;101520.97;4952626;28;114357;-68
2021/01/03 08:15:18;;;;;;;65.53;30.50;;;;;;;7.17;63.27;101513.94;4930976;28;114246;-68
2021/01/03 08:17:45;;;;;;;62.90;30.02;;;;;;;7.17;63.17;101519.22;4941194;28;124232;-68
2021/01/03 08:20:23;;;;;;;59.72;29.73;;;;;;;7.16;62.90;101517.50;4944645;28;123695;-68
2021/01/03 08:22:50;;;;;;;56.50;28.50;;;;;;;7.17;62.83;101519.22;4920327;28;115143;-68
2021/01/03 08:25:24;;;;;;;57.47;28.13;;;;;;;7.16;63.18;101528.03;4933644;28;114943;-68
2021/01/03 08:28:04;;;;;;;;;;;;;;;7.16;63.30;101525.41;4923997;28;124521;-68
2021/01/03 08:30:34;;;;;;;58.13;27.38;;;;;;;7.16;62.77;101528.03;4943682;28;124079;-68
2021/01/03 08:33:07;;;;;;;55.35;26.55;;;;;;;7.14;62.95;101524.56;4937966;28;114254;-68
2021/01/03 08:35:34;;;;;;;57.75;27.13;;;;;;;7.13;62.90;101538.63;4918335;28;112920;-68
2021/01/03 08:38:00;;;;;;;55.65;27.10;;;;;;;7.14;63.06;101535.09;4938170;28;124077;-68
2021/01/03 08:40:36;;;;;;;52.70;26.30;;;;;;;7.15;62.66;101536.81;4937000;28;123480;-68
2021/01/03 08:43:08;;;;;;;52.33;27.33;;;;;;;7.16;62.86;101538.56;4937113;28;114748;-68
2021/01/03 08:45:39;;;;;;;50.17;25.10;;;;;;;7.17;62.39;101545.56;4938170;28;113788;-68
2021/01/03 08:48:12;;;;;;;53.45;25.50;;;;;;;7.17;62.40;101544.69;4921501;28;123389;-68
2021/01/03 08:50:41;;;;;;;49.83;24.75;;;;;;;7.19;62.27;101543.75;4939055;28;123811;-68
2021/01/03 08:53:24;;;;;;;49.88;26.50;;;;;;;7.18;62.55;101555.22;4954554;28;113545;-68
2021/01/03 08:56:01;;;;;;;47.13;24.33;;;;;;;7.19;62.42;101549.03;4938906;28;114358;-68
2021/01/03 08:58:34;;;;;;;43.53;23.80;;;;;;;7.20;62.51;101555.19;4935533;28;122890;-68
2021/01/03 09:01:02;;;;;;;42.75;23.05;;;;;;;7.22;62.08;101551.63;4916560;28;122886;-68
2021/01/03 09:03:32;;;;;;;41.92;21.98;;;;;;;7.22;62.39;101554.25;4936201;28;114628;-68
2021/01/03 09:06:00;;;;;;;44.08;22.50;;;;;;;7.24;62.32;101556.00;4953810;28;115340;-68
2021/01/03 09:08:33;;;;;;;40.67;21.98;;;;;;;7.24;62.18;101556.00;4954319;28;124138;-70
2021/01/03 09:11:35;;;;;;;40.85;21.50;;;;;;;7.24;61.86;101558.63;4935410;28;124887;-67
2021/01/03 09:14:08;;;;;;;36.97;20.38;;;;;;;7.23;61.70;101560.38;4916023;28;115963;-69
2021/01/03 09:16:49;;;;;;;40.15;20.67;;;;;;;7.25;61.49;101563.00;4934500;28;114460;-67
2021/01/03 09:19:39;;;;;;;34.63;19.02;;;;;;;7.25;61.71;101557.72;4938384;28;123967;-67
2021/01/03 09:22:06;;;;;;;38.72;19.90;;;;;;;7.25;61.67;101563.84;4935353;28;123960;-68
2021/01/03 09:24:35;;;;;;;37.35;19.27;;;;;;;7.25;61.53;101563.84;4923322;28;114241;-68
2021/01/03 09:27:08;;;;;;;38.42;20.25;;;;;;;7.26;61.27;101565.59;4937785;28;113831;-67
2021/01/03 09:29:40;;;;;;;42.05;20.60;;;;;;;7.26;61.11;101559.47;4922978;28;123485;-67
2021/01/03 09:32:22;;;;;;;39.47;19.35;;;;;;;7.27;61.17;101569.09;4920356;28;123221;-68
2021/01/03 09:35:10;;;;;;;37.20;20.20;;;;;;;7.27;61.15;101572.63;4941927;23;113348;-69
2021/01/03 09:37:40;;;;;;;38.97;21.52;;;;;;;7.27;60.83;101571.72;4952297;28;114037;-69
2021/01/03 09:40:43;;;;;;;38.38;19.80;;;;;;;7.25;61.10;101568.25;4933641;28;123596;-69
2021/01/03 09:43:17;;;;;;;33.78;18.95;;;;;;;7.24;61.27;101582.34;4951422;28;123960;-69
2021/01/03 09:45:59;;;;;;;36.38;18.98;;;;;;;7.24;61.20;101579.72;4952186;28;114327;-69
2021/01/03 09:48:37;;;;;;;34.28;18.77;;;;;;;7.25;61.12;101578.78;4950603;28;113861;-69
2021/01/03 09:51:09;;;;;;;35.90;18.48;;;;;;;7.27;60.84;101582.25;4949924;28;124886;-69
2021/01/03 09:53:39;;;;;;;34.20;18.33;;;;;;;7.29;60.65;101585.75;4950986;28;123946;-69
2021/01/03 09:56:12;;;;;;;34.78;17.73;;;;;;;7.28;60.49;101578.75;4934918;28;115155;-69
2021/01/03 09:58:41;;;;;;;32.53;17.40;;;;;;;7.30;60.65;101577.81;4952601;28;114216;-69
2021/01/03 10:01:30;;;;;;;34.15;18.70;;;;;;;7.30;60.69;101576.94;4952572;28;125608;-69
2021/01/03 10:04:34;;;;;;;32.63;17.60;;;;;;;7.31;60.48;101573.41;4933035;28;123806;-69
2021/01/03 10:07:18;;;;;;;32.45;17.35;;;;;;;7.33;60.47;101576.91;4935441;28;115424;-69
2021/01/03 10:09:52;;;;;;;32.63;18.17;;;;;;;7.33;60.21;101571.63;4947637;28;115230;-69
2021/01/03 10:12:28;;;;;;;30.95;17.38;;;;;;;7.33;60.00;101582.16;4934361;28;122804;-69
2021/01/03 10:15:22;;;;;;;30.10;16.02;;;;;;;7.33;60.01;101571.63;4949216;28;124753;-69
2021/01/03 10:18:01;;;;;;;27.98;14.98;;;;;;;7.31;60.26;101568.13;4929231;28;113330;-69
2021/01/03 10:20:34;;;;;;;27.75;15.60;;;;;;;7.30;59.81;101571.69;4950674;28;114099;-69
2021/01/03 10:23:02;;;;;;;30.55;15.35;;;;;;;7.33;59.86;101576.91;4932550;28;124408;-69
2021/01/03 10:25:29;;;;;;;24.65;14.68;;;;;;;7.34;59.84;101574.22;4954511;28;124111;-69
2021/01/03 10:28:08;;;;;;;24.30;14.40;;;;;;;7.34;59.72;101570.72;4951222;28;114249;-69
2021/01/03 10:30:34;;;;;;;25.73;14.95;;;;;;;7.37;59.80;101570.66;4951604;28;114342;-69
2021/01/03 10:33:01;;;;;;;24.52;14.93;;;;;;;7.38;59.64;101575.00;4949809;28;124741;-69
2021/01/03 10:35:28;;;;;;;25.50;14.05;;;;;;;7.39;59.72;101576.78;4918965;28;122588;-69
2021/01/03 10:37:55;;;;;;;24.10;13.73;;;;;;;7.38;59.39;101570.63;4951670;28;114167;-69
2021/01/03 10:40:22;;;;;;;23.67;13.88;;;;;;;7.39;59.34;101576.78;4934054;28;113915;-69
2021/01/03 10:42:50;;;;;;;21.45;13.02;;;;;;;7.40;59.50;101565.31;4934733;28;123922;-68
2021/01/03 10:45:19;;;;;;;22.65;12.35;;;;;;;7.42;59.01;101571.41;4933311;28;125985;-68
2021/01/03 10:47:46;;;;;;;21.42;12.50;;;;;;;7.43;59.02;101572.31;4934521;28;113344;-69
2021/01/03 10:50:14;;;;;;;22.02;12.40;;;;;;;7.42;59.04;101566.16;4933539;28;113250;-69
2021/01/03 10:52:43;;;;;;;20.95;12.02;;;;;;;7.43;59.32;101567.91;4937587;28;124474;-69
2021/01/03 10:55:11;;;;;;;21.48;11.65;;;;;;;7.47;58.88;101569.56;4950612;28;124763;-69
2021/01/03 10:57:37;;;;;;;20.52;11.68;;;;;;;7.47;58.71;101564.28;4937100;28;115007;-69
2021/01/03 11:00:07;;;;;;;19.65;11.32;;;;;;;7.49;58.71;101566.91;4918158;28;114656;-68
2021/01/03 11:02:34;;;;;;;22.52;11.57;;;;;;;7.50;58.81;101568.66;4962231;28;124007;-71
2021/01/03 11:05:03;;;;;;;19.45;11.52;;;;;;;7.52;58.83;101572.97;4916537;28;122615;-69
2021/01/03 11:07:29;;;;;;;18.95;11.07;;;;;;;7.53;58.56;101563.28;4951188;28;114487;-69
2021/01/03 11:09:56;;;;;;;18.15;11.23;;;;;;;7.53;58.48;101558.88;4951480;28;113814;-69
2021/01/03 11:12:23;;;;;;;18.13;10.85;;;;;;;7.53;58.25;101552.75;4946313;28;123570;-70
2021/01/03 11:14:50;;;;;;;19.05;10.95;;;;;;;7.52;58.21;101567.72;4931180;28;123893;-69
2021/01/03 11:17:16;;;;;;;17.02;9.95;;;;;;;7.52;58.17;101562.44;4937060;28;113178;-69
2021/01/03 11:19:44;;;;;;;16.77;10.05;;;;;;;7.54;58.23;101555.38;4935648;28;114044;-69
2021/01/03 11:22:14;;;;;;;16.85;9.70;;;;;;;7.54;58.42;101547.47;4935523;28;125062;-69
2021/01/03 11:24:42;;;;;;;15.43;10.10;;;;;;;7.56;58.09;101553.56;4937412;28;124383;-69
2021/01/03 11:27:11;;;;;;;17.48;9.95;;;;;;;7.57;58.18;101555.31;4939251;28;115101;-69
2021/01/03 11:29:58;;;;;;;15.10;9.40;;;;;;;7.58;57.77;101557.03;4921554;28;113522;-69
2021/01/03 11:32:26;;;;;;;15.73;9.68;;;;;;;7.58;57.68;101546.47;4924924;28;122163;-69
2021/01/03 11:34:54;;;;;;;17.55;10.23;;;;;;;7.57;57.90;101555.31;4922469;28;123851;-69